Flight Track Log - Related Links

Times and Time Zones

All times are in EDT time to prevent confusion due to time zone crossing. See the CSN6812 flight status page for this flight to view local times or setup timezone preferences in your user account.

Time Position Orientation Groundspeed Altitude Reporting Facility
EDT Latitude Longitude Course Direction KTS MPH feet Rate Location/Type
Mon 10:49:00 PM 39.6249 76.1988 59° Northeast  Level Estimated
Mon 10:50:00 PM 39.7062 76.3774 59° Northeast  Level Estimated
Mon 10:51:00 PM 39.7873 76.5564 59° Northeast  Level Estimated
Mon 10:52:00 PM 39.8681 76.7359 60° Northeast  Level Estimated
Mon 10:53:00 PM 39.9486 76.9158 60° Northeast  Level Estimated
Mon 10:54:00 PM 40.0289 77.0961 60° Northeast  Level Estimated
Mon 10:55:00 PM 40.1088 77.2768 60° Northeast  Level Estimated
Mon 10:56:00 PM 40.1885 77.4580 60° Northeast  Level Estimated
Mon 10:57:00 PM 40.2679 77.6395 60° Northeast  Level Estimated
Mon 10:58:00 PM 40.3470 77.8215 60° Northeast  Level Estimated
Mon 10:59:00 PM 40.4259 78.0040 60° Northeast  Level Estimated
Mon 11:00:00 PM 40.5044 78.1868 60° Northeast  Level Estimated
Mon 11:01:00 PM 40.5826 78.3701 61° Northeast  Level Estimated
Mon 11:02:00 PM 40.6606 78.5538 61° Northeast  Level Estimated
Mon 11:03:00 PM 40.7383 78.7380 61° Northeast  Level Estimated
Mon 11:04:00 PM 40.8157 78.9225 61° Northeast  Level Estimated
Mon 11:05:00 PM 40.8927 79.1075 61° Northeast  Level Estimated
Mon 11:06:00 PM 40.9695 79.2930 61° Northeast  Level Estimated
Mon 11:07:00 PM 41.0460 79.4788 61° Northeast  Level Estimated
Mon 11:08:00 PM 41.1222 79.6651 61° Northeast  Level Estimated
Mon 11:09:00 PM 41.1981 79.8518 62° Northeast  Level Estimated
Mon 11:10:00 PM 41.2737 80.0390 62° Northeast  Level Estimated
Mon 11:11:00 PM 41.3490 80.2266 62° Northeast  Level Estimated
Mon 11:12:00 PM 41.4240 80.4146 62° Northeast  Level Estimated
Mon 11:13:00 PM 41.4986 80.6031 62° Northeast  Level Estimated
Mon 11:14:00 PM 41.5730 80.7920 62° Northeast  Level Estimated
Mon 11:15:00 PM 41.6470 80.9813 62° Northeast  Level Estimated
Mon 11:16:00 PM 41.7208 81.1711 62° Northeast  Level Estimated
Mon 11:17:00 PM 41.7942 81.3613 63° Northeast  Level Estimated
Mon 11:18:00 PM 41.8673 81.5519 63° Northeast  Level Estimated
Mon 11:19:00 PM 41.9401 81.7430 63° Northeast  Level Estimated
Mon 11:20:00 PM 42.0126 81.9345 63° Northeast  Level Estimated
Mon 11:21:00 PM 42.0848 82.1264 63° Northeast  Level Estimated
Mon 11:22:00 PM 42.1566 82.3188 63° Northeast  Level Estimated
Mon 11:23:00 PM 42.2281 82.5116 63° Northeast  Level Estimated
Mon 11:24:00 PM 42.2993 82.7048 63° Northeast  Level Estimated
Mon 11:25:00 PM 42.3702 82.8985 64° Northeast  Level Estimated
Mon 11:26:00 PM 42.4407 83.0927 64° Northeast  Level Estimated
Mon 11:27:00 PM 42.5109 83.2872 64° Northeast  Level Estimated
Mon 11:28:00 PM 42.5808 83.4822 64° Northeast  Level Estimated
Mon 11:29:00 PM 42.6504 83.6776 64° Northeast  Level Estimated
Mon 11:30:00 PM 42.7196 83.8735 64° Northeast  Level Estimated
Mon 11:31:00 PM 42.7885 84.0698 64° Northeast  Level Estimated
Mon 11:32:00 PM 42.8571 84.2666 65° Northeast  Level Estimated
Mon 11:33:00 PM 42.9253 84.4637 65° Northeast  Level Estimated
Mon 11:34:00 PM 42.9931 84.6613 65° Northeast  Level Estimated
Mon 11:35:00 PM 43.0607 84.8594 65° Northeast  Level Estimated
Mon 11:36:00 PM 43.1278 85.0579 65° Northeast  Level Estimated
Mon 11:37:00 PM 43.1947 85.2568 65° Northeast  Level Estimated
Mon 11:38:00 PM 43.2612 85.4562 65° Northeast  Level Estimated
Mon 11:39:00 PM 43.3274 85.6560 65° Northeast  Level Estimated
Mon 11:40:00 PM 43.3932 85.8562 66° East  Level Estimated
Mon 11:41:00 PM 43.4586 86.0568 66° East  Level Estimated
Mon 11:42:00 PM 43.5237 86.2579 66° East  Level Estimated
Mon 11:43:00 PM 43.5885 86.4595 66° East  Level Estimated
Mon 11:44:00 PM 43.6529 86.6614 66° East  Level Estimated
Mon 11:45:00 PM 43.7169 86.8638 66° East  Level Estimated
Mon 11:46:00 PM 43.7806 87.0666 66° East  Level Estimated
Mon 11:47:00 PM 43.8439 87.2699 67° East  Level Estimated
Mon 11:48:00 PM 43.9069 87.4736 67° East  Level Estimated
Mon 11:49:00 PM 43.9071 87.4742 67° East  Level Estimated
Mon 11:50:00 PM 43.9071 87.4742 144° Southeast  Level Estimated
Mon 11:51:00 PM 43.9071 87.4742 144° Southeast  Level Estimated
Mon 11:52:00 PM 43.9071 87.4742 144° Southeast  Level Estimated
Mon 11:53:00 PM 43.9071 87.4742 144° Southeast  Level Estimated
Mon 11:54:00 PM 43.9071 87.4742 144° Southeast  Level Estimated
Mon 11:55:00 PM 43.9071 87.4742 144° Southeast  Level Estimated
Mon 11:56:00 PM 43.9071 87.4742 144° Southeast  Level Estimated
Mon 11:57:00 PM 43.9071 87.4742 144° Southeast  Level Estimated
Mon 11:58:00 PM 43.9071 87.4742 144° Southeast  Level Estimated
Mon 11:59:00 PM 43.9071 87.4742 144° Southeast  Level Estimated
Tue 12:00:00 AM 43.9071 87.4742 144° Southeast  Level Estimated
Tue 12:01:00 AM 43.9071 87.4742 144° Southeast  Level Estimated
Tue 12:02:00 AM 43.9071 87.4742 144° Southeast  Level Estimated
Tue 12:03:00 AM 43.9071 87.4742 144° Southeast  Level Estimated
Tue 12:04:00 AM 43.9071 87.4742 144° Southeast  Level Estimated

Login

Don't have an account? Register now (free) for customized features, flight alerts, and more!